createdAt,value
2018-06-07T00:02:33.415Z,6.40
2018-06-07T00:03:17.568Z,7.00
2018-06-07T00:04:17.518Z,6.20
2018-06-07T00:05:17.503Z,6.40
2018-06-07T00:06:17.472Z,5.90
2018-06-07T00:07:19.620Z,6.20
2018-06-07T00:08:17.441Z,7.10
2018-06-07T00:09:17.471Z,6.40
2018-06-07T00:10:17.388Z,6.70
2018-06-07T00:11:17.376Z,6.20
2018-06-07T00:12:17.358Z,6.80
2018-06-07T00:13:17.320Z,6.70
2018-06-07T00:14:17.304Z,6.20
2018-06-07T00:15:17.278Z,6.60
2018-06-07T00:16:17.278Z,6.30
2018-06-07T00:17:17.237Z,6.80
2018-06-07T00:18:17.211Z,6.50
2018-06-07T00:19:17.191Z,6.70
2018-06-07T00:20:17.168Z,6.60
2018-06-07T00:21:17.159Z,6.80
2018-06-07T00:22:17.143Z,7.40
2018-06-07T00:23:17.112Z,6.60
2018-06-07T00:24:17.094Z,7.10
2018-06-07T00:25:17.080Z,6.80
2018-06-07T00:26:17.071Z,6.90
2018-06-07T00:27:17.032Z,6.30
2018-06-07T00:28:17.018Z,6.70
2018-06-07T00:29:17.025Z,6.90
2018-06-07T00:30:16.986Z,6.70
2018-06-07T00:31:16.933Z,6.90
2018-06-07T00:32:18.027Z,6.40
2018-06-07T00:33:16.904Z,7.00
2018-06-07T00:34:16.883Z,7.30
2018-06-07T00:35:16.875Z,6.80
2018-06-07T00:36:16.957Z,6.60
2018-06-07T00:37:16.807Z,6.80
2018-06-07T00:38:16.861Z,7.40
2018-06-07T00:39:16.812Z,6.80
2018-06-07T00:40:16.877Z,7.20
2018-06-07T00:41:16.723Z,7.50
2018-06-07T00:42:16.786Z,7.10
2018-06-07T00:43:16.694Z,6.70
2018-06-07T00:44:16.698Z,6.90
2018-06-07T00:45:16.683Z,7.10
2018-06-07T00:46:16.685Z,6.80
2018-06-07T00:47:16.618Z,7.00
2018-06-07T00:48:16.571Z,7.00
2018-06-07T00:49:16.595Z,6.70
2018-06-07T00:50:16.546Z,7.30
2018-06-07T00:51:16.583Z,7.50
2018-06-07T00:52:16.490Z,6.90
2018-06-07T00:53:16.471Z,7.50
2018-06-07T00:54:16.456Z,6.70
2018-06-07T00:55:16.412Z,6.90
2018-06-07T00:56:16.389Z,7.50
2018-06-07T00:57:16.457Z,7.20
2018-06-07T00:58:16.354Z,6.80
2018-06-07T00:59:16.374Z,6.80
2018-06-07T01:00:16.310Z,6.90
2018-06-07T01:01:17.305Z,7.70
2018-06-07T01:02:16.261Z,7.50
2018-06-07T01:03:16.230Z,7.60
2018-06-07T01:04:16.219Z,7.00
2018-06-07T01:05:17.233Z,7.50
2018-06-07T01:06:16.171Z,7.80
2018-06-07T01:07:16.151Z,7.60
2018-06-07T01:08:16.144Z,7.80
2018-06-07T01:09:16.124Z,7.70
2018-06-07T01:10:16.138Z,7.60
2018-06-07T01:11:16.068Z,7.50
2018-06-07T01:12:16.067Z,8.00
2018-06-07T01:13:16.056Z,7.60
2018-06-07T01:14:16.002Z,8.10
2018-06-07T01:15:15.980Z,7.30
2018-06-07T01:16:15.988Z,7.40
2018-06-07T01:17:15.979Z,7.30
2018-06-07T01:18:15.918Z,7.60
2018-06-07T01:19:16.011Z,7.20
2018-06-07T01:20:15.873Z,7.40
2018-06-07T01:21:15.866Z,7.60
2018-06-07T01:22:15.839Z,8.00
2018-06-07T01:23:15.923Z,8.10
2018-06-07T01:24:15.767Z,7.50
2018-06-07T01:25:15.755Z,7.00
2018-06-07T01:26:15.729Z,6.90
2018-06-07T01:27:15.733Z,7.30
2018-06-07T01:28:15.679Z,7.90
2018-06-07T01:29:15.673Z,7.60
2018-06-07T01:30:15.649Z,8.10
2018-06-07T01:31:15.622Z,7.90
2018-06-07T01:32:15.599Z,7.90
2018-06-07T01:33:15.590Z,7.80
2018-06-07T01:34:15.553Z,7.30
2018-06-07T01:35:16.637Z,8.10
2018-06-07T01:36:15.503Z,7.80
2018-06-07T01:37:15.508Z,7.70
2018-06-07T01:38:15.465Z,7.90
2018-06-07T01:39:15.444Z,8.20
2018-06-07T01:40:15.425Z,8.40
2018-06-07T01:41:16.469Z,7.50
2018-06-07T01:42:15.368Z,8.40
2018-06-07T01:43:15.383Z,8.10
2018-06-07T01:44:16.362Z,8.20
2018-06-07T01:45:15.309Z,7.80
2018-06-07T01:46:15.295Z,8.60
2018-06-07T01:47:15.282Z,7.80
2018-06-07T01:48:15.241Z,8.30
2018-06-07T01:49:15.228Z,7.70
2018-06-07T01:50:17.250Z,8.20
2018-06-07T01:51:15.182Z,8.00
2018-06-07T01:52:15.145Z,7.90
2018-06-07T01:53:15.203Z,8.50
2018-06-07T01:54:15.126Z,8.60
2018-06-07T01:55:15.087Z,8.80
2018-06-07T01:56:15.113Z,8.00
2018-06-07T01:57:15.043Z,8.50
2018-06-07T01:58:15.036Z,7.90
2018-06-07T01:59:14.992Z,8.40
2018-06-07T02:00:14.974Z,8.20
2018-06-07T02:01:15.074Z,9.00
2018-06-07T02:02:14.933Z,8.00
2018-06-07T02:03:14.900Z,8.30
2018-06-07T02:04:14.883Z,8.10
2018-06-07T02:05:14.874Z,8.00
2018-06-07T02:06:14.844Z,8.30
2018-06-07T02:07:14.816Z,7.90
2018-06-07T02:08:14.807Z,8.40
2018-06-07T02:09:14.806Z,8.20
2018-06-07T02:10:14.752Z,8.00
2018-06-07T02:11:14.836Z,8.40
2018-06-07T02:12:14.721Z,8.40
2018-06-07T02:13:14.726Z,8.70
2018-06-07T02:14:14.667Z,8.70
2018-06-07T02:15:14.653Z,8.80
2018-06-07T02:16:14.626Z,8.50
2018-06-07T02:17:14.610Z,8.70
2018-06-07T02:18:14.620Z,8.20
2018-06-07T02:19:14.561Z,8.60
2018-06-07T02:20:14.527Z,7.90
2018-06-07T02:21:14.507Z,8.10
2018-06-07T02:22:14.587Z,8.10
2018-06-07T02:23:14.454Z,8.90
2018-06-07T02:24:14.448Z,9.20
2018-06-07T02:25:14.417Z,8.70
2018-06-07T02:26:14.400Z,8.40
2018-06-07T02:27:14.390Z,8.90
2018-06-07T02:28:14.342Z,8.70
2018-06-07T02:29:14.326Z,8.60
2018-06-07T02:30:14.316Z,8.20
2018-06-07T02:31:14.344Z,8.70
2018-06-07T02:32:14.259Z,8.50
2018-06-07T02:33:14.378Z,8.50
2018-06-07T02:34:14.226Z,9.00
2018-06-07T02:35:14.193Z,8.40
2018-06-07T02:36:14.173Z,8.30
2018-06-07T02:37:14.168Z,8.60
2018-06-07T02:38:14.150Z,8.30
2018-06-07T02:39:14.100Z,8.10
2018-06-07T02:40:14.207Z,8.80
2018-06-07T02:41:14.069Z,9.00
2018-06-07T02:42:14.114Z,9.40
2018-06-07T02:43:14.018Z,8.80
2018-06-07T02:44:14.011Z,8.80
2018-06-07T02:45:13.956Z,8.70
2018-06-07T02:46:13.943Z,9.00
2018-06-07T02:47:13.924Z,9.40
2018-06-07T02:48:13.920Z,8.90
2018-06-07T02:49:13.893Z,8.80
2018-06-07T02:50:13.861Z,9.00
2018-06-07T02:51:13.832Z,8.80
2018-06-07T02:52:13.805Z,8.90
2018-06-07T02:53:13.778Z,9.00
2018-06-07T02:54:13.878Z,8.80
2018-06-07T02:55:13.756Z,8.80
2018-06-07T02:56:13.724Z,8.90
2018-06-07T02:57:13.717Z,8.80
2018-06-07T02:58:13.703Z,8.90
2018-06-07T02:59:13.649Z,9.20
2018-06-07T03:00:15.671Z,9.50
2018-06-07T03:01:13.608Z,9.00
2018-06-07T03:02:13.585Z,8.80
2018-06-07T03:03:13.580Z,9.40
2018-06-07T03:04:13.547Z,9.10
2018-06-07T03:05:13.537Z,9.10
2018-06-07T03:06:13.517Z,8.40
2018-06-07T03:07:13.556Z,8.50
2018-06-07T03:08:13.465Z,9.60
2018-06-07T03:09:13.431Z,8.40
2018-06-07T03:10:13.394Z,9.30
2018-06-07T03:11:13.390Z,9.70
2018-06-07T03:12:13.392Z,9.40
2018-06-07T03:13:13.342Z,9.40
2018-06-07T03:14:13.363Z,9.10
2018-06-07T03:15:13.294Z,8.90
2018-06-07T03:16:13.317Z,9.10
2018-06-07T03:17:13.241Z,8.70
2018-06-07T03:18:13.326Z,9.10
2018-06-07T03:19:13.202Z,8.60
2018-06-07T03:20:13.242Z,9.20
2018-06-07T03:21:13.201Z,9.40
2018-06-07T03:22:13.130Z,8.90
2018-06-07T03:23:13.112Z,9.00
2018-06-07T03:24:13.083Z,9.10
2018-06-07T03:25:13.062Z,9.30
2018-06-07T03:26:13.094Z,9.50
2018-06-07T03:27:13.013Z,9.20
2018-06-07T03:28:13.089Z,9.80
2018-06-07T03:29:12.974Z,9.20
2018-06-07T03:30:13.009Z,8.60
2018-06-07T03:31:12.935Z,9.40
2018-06-07T03:32:12.916Z,9.30
2018-06-07T03:33:12.971Z,9.20
2018-06-07T03:34:12.847Z,9.20
2018-06-07T03:35:12.932Z,9.80
2018-06-07T03:36:12.823Z,10.40
2018-06-07T03:37:12.828Z,9.30
2018-06-07T03:38:12.756Z,10.20
2018-06-07T03:39:12.751Z,9.20
2018-06-07T03:40:12.719Z,10.40
2018-06-07T03:41:12.709Z,9.20
2018-06-07T03:42:12.688Z,9.60
2018-06-07T03:43:12.665Z,9.30
2018-06-07T03:44:12.635Z,10.00
2018-06-07T03:45:12.699Z,9.30
2018-06-07T03:46:12.599Z,9.60
2018-06-07T03:47:12.622Z,9.60
2018-06-07T03:48:12.548Z,9.30
2018-06-07T04:02:14.897Z,10.20
2018-06-07T04:03:14.864Z,10.00
2018-06-07T04:04:14.874Z,9.90
2018-06-07T04:05:13.153Z,9.50
2018-06-07T04:06:14.331Z,9.90
2018-06-07T04:07:16.869Z,9.60
2018-06-07T04:08:13.104Z,9.30
2018-06-07T04:09:16.147Z,10.30
2018-06-07T04:10:14.994Z,9.60
2018-06-07T04:11:14.876Z,10.00
2018-06-07T04:12:13.039Z,10.30
2018-06-07T04:13:14.873Z,9.40
2018-06-07T04:14:14.871Z,9.80
2018-06-07T04:15:12.920Z,10.20
2018-06-07T04:16:12.960Z,9.80
2018-06-07T04:17:15.397Z,10.50
2018-06-07T04:18:12.865Z,9.70
2018-06-07T04:19:12.920Z,9.70
2018-06-07T04:20:12.823Z,9.40
2018-06-07T04:21:12.858Z,10.00
2018-06-07T04:22:12.779Z,10.30
2018-06-07T04:23:12.844Z,10.00
2018-06-07T04:24:12.734Z,10.50
2018-06-07T04:25:12.756Z,10.30
2018-06-07T04:26:12.687Z,9.90
2018-06-07T04:27:12.682Z,10.60
2018-06-07T04:28:12.664Z,9.50
2018-06-07T04:29:12.694Z,10.40
2018-06-07T04:30:12.583Z,9.70
2018-06-07T04:31:12.581Z,10.70
2018-06-07T04:32:12.608Z,10.70
2018-06-07T04:33:12.536Z,11.30
2018-06-07T04:34:12.500Z,11.00
2018-06-07T04:35:12.530Z,11.00
2018-06-07T04:36:12.457Z,11.30
2018-06-07T04:37:12.428Z,11.00
2018-06-07T04:38:12.435Z,11.40
2018-06-07T04:39:12.403Z,11.00
2018-06-07T04:40:12.359Z,11.10
2018-06-07T04:41:12.340Z,10.40
2018-06-07T04:42:12.330Z,11.40
2018-06-07T04:43:12.310Z,10.90
2018-06-07T04:44:12.283Z,10.20
2018-06-07T04:45:12.381Z,10.00
2018-06-07T04:46:12.297Z,11.20
2018-06-07T04:47:12.205Z,10.50
2018-06-07T04:48:13.228Z,10.90
2018-06-07T04:49:12.147Z,10.90
2018-06-07T04:50:12.143Z,11.00
2018-06-07T04:51:12.146Z,13.00
2018-06-07T04:52:12.091Z,10.80
2018-06-07T04:53:12.099Z,11.40
2018-06-07T04:54:12.043Z,10.70
2018-06-07T04:55:12.028Z,10.80
2018-06-07T04:56:11.987Z,10.10
2018-06-07T04:57:11.983Z,10.50
2018-06-07T04:58:11.949Z,10.70
2018-06-07T04:59:11.932Z,10.10
2018-06-07T05:00:11.988Z,10.90
2018-06-07T05:01:11.895Z,10.90
2018-06-07T05:02:11.859Z,11.10
2018-06-07T05:03:11.840Z,11.10
2018-06-07T05:04:11.808Z,11.20
2018-06-07T05:05:11.788Z,11.30
2018-06-07T05:06:11.772Z,11.00
2018-06-07T05:07:11.764Z,10.90
2018-06-07T05:08:11.725Z,11.10
2018-06-07T05:09:11.691Z,11.60
2018-06-07T05:10:11.747Z,11.50
2018-06-07T05:11:11.648Z,11.30
2018-06-07T05:12:11.643Z,11.50
2018-06-07T05:13:11.629Z,11.70
2018-06-07T05:14:11.585Z,10.80
2018-06-07T05:15:11.549Z,11.80
2018-06-07T05:16:11.541Z,11.20
2018-06-07T05:17:11.537Z,11.30
2018-06-07T05:18:11.545Z,11.80
2018-06-07T06:12:22.353Z,11.70
2018-06-07T06:13:22.310Z,12.30
2018-06-07T06:14:22.294Z,12.70
2018-06-07T06:15:23.310Z,13.20
2018-06-07T06:16:22.265Z,13.10
2018-06-07T06:17:22.271Z,13.00
2018-06-07T06:18:22.193Z,13.30
2018-06-07T06:19:23.214Z,13.10
2018-06-07T06:20:22.138Z,12.90
2018-06-07T06:21:22.145Z,12.80
2018-06-07T06:22:22.194Z,13.00
2018-06-07T06:23:22.090Z,13.60
2018-06-07T06:24:22.288Z,14.90
2018-06-07T06:25:22.025Z,13.80
2018-06-07T06:26:21.993Z,13.50
2018-06-07T06:27:21.983Z,13.20
2018-06-07T06:28:21.954Z,13.10
2018-06-07T06:29:21.960Z,13.30
2018-06-07T06:43:15.284Z,14.10
2018-06-07T06:44:12.605Z,15.30
2018-06-07T06:45:12.569Z,14.30
2018-06-07T06:46:12.582Z,14.60
2018-06-07T06:47:12.556Z,13.70
2018-06-07T06:48:12.554Z,13.90
2018-06-07T06:49:12.540Z,14.30
2018-06-07T06:50:12.471Z,13.80
2018-06-07T06:51:12.451Z,13.30
2018-06-07T06:52:12.425Z,13.60
2018-06-07T06:53:12.403Z,13.00
2018-06-07T06:54:12.467Z,13.10
2018-06-07T06:55:12.381Z,13.20
2018-06-07T06:56:12.340Z,13.10
2018-06-07T06:57:12.310Z,13.20
2018-06-07T06:58:12.316Z,13.70
2018-06-07T06:59:12.365Z,12.80
2018-06-07T07:00:12.305Z,13.30
2018-06-07T07:01:12.290Z,13.20
2018-06-07T07:02:12.306Z,13.60
2018-06-07T07:03:12.181Z,14.30
2018-06-07T07:04:12.160Z,14.40
2018-06-07T07:05:12.233Z,13.60
2018-06-07T07:06:12.108Z,13.60
2018-06-07T07:07:12.111Z,14.30
2018-06-07T07:08:12.055Z,14.20
2018-06-07T07:09:12.154Z,13.90
2018-06-07T07:10:12.026Z,13.90
2018-06-07T07:11:12.054Z,13.80
2018-06-07T07:12:11.982Z,14.20
2018-06-07T07:13:11.966Z,14.20
2018-06-07T07:14:11.934Z,13.70
2018-06-07T07:15:11.982Z,13.40
2018-06-07T07:16:11.908Z,13.40
2018-06-07T07:17:11.893Z,13.80
2018-06-07T07:18:11.830Z,14.00
2018-06-07T07:19:11.971Z,14.00
2018-06-07T07:20:11.782Z,14.30
2018-06-07T07:21:11.809Z,14.30
2018-06-07T07:22:11.896Z,14.00
2018-06-07T07:23:11.854Z,13.40
2018-06-07T07:24:11.726Z,13.90
2018-06-07T07:25:11.739Z,15.00
2018-06-07T07:26:11.632Z,14.40
2018-06-07T07:27:11.631Z,13.90
2018-06-07T07:28:11.599Z,14.30
2018-06-07T07:29:11.658Z,14.90
2018-06-07T07:30:11.563Z,15.60
2018-06-07T07:31:11.541Z,14.50
2018-06-07T07:32:11.514Z,15.50
2018-06-07T07:33:11.494Z,15.10
2018-06-07T07:34:11.486Z,16.20
2018-06-07T07:35:11.432Z,16.20
2018-06-07T07:36:11.467Z,15.50
2018-06-07T07:37:11.391Z,15.40
2018-06-07T07:38:11.390Z,19.10
2018-06-07T07:39:11.421Z,16.60
2018-06-07T07:40:11.350Z,18.20
2018-06-07T07:41:11.318Z,17.20
2018-06-07T07:42:11.282Z,18.10
2018-06-07T07:43:11.272Z,18.90
2018-06-07T07:44:11.246Z,18.90
2018-06-07T07:45:11.218Z,19.20
2018-06-07T07:46:11.265Z,19.80
2018-06-07T07:47:11.165Z,18.30
2018-06-07T07:48:11.149Z,18.20
2018-06-07T07:49:11.115Z,16.30
2018-06-07T07:50:11.107Z,15.30
2018-06-07T07:51:11.095Z,16.60
2018-06-07T07:52:11.054Z,16.70
2018-06-07T07:53:11.130Z,16.50
2018-06-07T07:54:10.999Z,16.60
2018-06-07T07:55:11.014Z,16.40
2018-06-07T07:56:10.961Z,16.10
2018-06-07T07:57:10.942Z,15.40
2018-06-07T07:58:10.894Z,15.70
2018-06-07T07:59:10.919Z,16.30
2018-06-07T08:00:10.873Z,15.90
2018-06-07T08:01:11.931Z,15.50
2018-06-07T08:02:10.819Z,15.60
2018-06-07T08:03:10.786Z,13.90
2018-06-07T08:04:10.770Z,14.00
2018-06-07T08:05:11.911Z,13.70
2018-06-07T08:06:10.747Z,15.40
2018-06-07T08:07:10.812Z,14.70
2018-06-07T08:08:10.740Z,15.90
2018-06-07T08:09:10.783Z,15.80
2018-06-07T08:10:10.641Z,15.80
2018-06-07T08:11:10.629Z,15.00
2018-06-07T08:12:10.580Z,15.80
2018-06-07T08:13:10.563Z,14.80
2018-06-07T08:14:10.551Z,17.70
2018-06-07T08:15:10.540Z,17.30
2018-06-07T08:16:10.612Z,17.30
2018-06-07T08:17:10.479Z,16.00
2018-06-07T08:18:10.515Z,16.50
2018-06-07T08:19:10.450Z,15.80
2018-06-07T08:20:10.405Z,15.50
2018-06-07T08:21:10.391Z,15.20
2018-06-07T08:22:10.353Z,15.50
2018-06-07T08:23:10.431Z,15.50
2018-06-07T08:24:10.328Z,14.60
2018-06-07T08:25:10.289Z,15.40
2018-06-07T08:40:07.380Z,15.70
2018-06-07T08:41:07.316Z,15.70
2018-06-07T08:43:00.570Z,15.40
2018-06-07T08:44:00.595Z,16.30
2018-06-07T08:45:00.496Z,14.40
2018-06-07T08:46:00.473Z,14.30
2018-06-07T08:47:00.457Z,14.40
2018-06-07T08:48:00.440Z,16.10
2018-06-07T08:49:00.420Z,15.40
2018-06-07T08:50:00.386Z,15.10
2018-06-07T08:51:00.376Z,15.80
2018-06-07T08:52:00.344Z,15.30
2018-06-07T08:53:00.319Z,15.10
2018-06-07T08:54:00.351Z,15.10
2018-06-07T08:55:00.314Z,15.70
2018-06-07T08:56:00.365Z,15.10
2018-06-07T08:57:00.239Z,14.90
2018-06-07T08:58:00.217Z,14.50
2018-06-07T08:59:00.236Z,14.90
2018-06-07T09:00:00.291Z,15.80
2018-06-07T09:01:00.170Z,14.90
2018-06-07T09:02:00.208Z,14.60
2018-06-07T09:03:00.136Z,15.60
2018-06-07T09:04:00.143Z,15.40
2018-06-07T09:05:00.087Z,15.30
2018-06-07T09:06:00.141Z,15.20
2018-06-07T09:07:00.066Z,14.50
2018-06-07T09:08:00.057Z,14.20
2018-06-07T09:08:59.979Z,15.70
2018-06-07T09:10:00.069Z,15.40
2018-06-07T09:10:59.939Z,16.40
2018-06-07T09:11:59.979Z,15.50
2018-06-07T09:12:59.883Z,15.50
2018-06-07T09:13:59.888Z,16.30
2018-06-07T09:14:59.868Z,16.00
2018-06-07T09:15:59.915Z,16.70
2018-06-07T09:16:59.823Z,17.10
2018-06-07T09:17:59.814Z,15.80
2018-06-07T09:18:59.780Z,15.90
2018-06-07T09:19:59.817Z,15.10
2018-06-07T09:20:59.708Z,16.30
2018-06-07T09:22:00.760Z,16.80
2018-06-07T09:22:59.672Z,15.60
2018-06-07T09:23:59.788Z,13.80
2018-06-07T09:24:59.627Z,14.40
2018-06-07T09:25:59.695Z,13.60
2018-06-07T09:26:59.605Z,14.20
2018-06-07T09:27:59.593Z,14.70
2018-06-07T09:28:59.636Z,14.50
2018-06-07T09:29:59.532Z,14.10
2018-06-07T09:30:59.671Z,15.40
2018-06-07T09:31:59.486Z,14.60
2018-06-07T09:32:59.499Z,15.50
2018-06-07T09:33:59.443Z,14.30
2018-06-07T09:34:59.505Z,14.80
2018-06-07T09:35:59.444Z,15.60
2018-06-07T09:36:59.387Z,15.50
2018-06-07T09:37:59.357Z,15.20
2018-06-07T09:38:59.414Z,15.10
2018-06-07T09:39:59.317Z,13.60
2018-06-07T09:56:36.415Z,16.00
2018-06-07T09:57:36.357Z,14.70
2018-06-07T09:58:36.343Z,14.10
2018-06-07T09:59:36.326Z,15.20
2018-06-07T10:00:36.298Z,14.60
2018-06-07T10:01:36.276Z,13.80
2018-06-07T10:02:36.256Z,14.00
2018-06-07T10:03:36.275Z,13.30
2018-06-07T10:04:36.231Z,12.20
2018-06-07T10:05:36.192Z,13.40
2018-06-07T10:06:36.170Z,13.80
2018-06-07T10:07:36.146Z,15.70
2018-06-07T10:08:36.141Z,16.80
2018-06-07T10:09:36.114Z,16.00
2018-06-07T10:10:36.114Z,14.60
2018-06-07T10:11:36.059Z,14.60
2018-06-07T10:12:36.055Z,12.00
2018-06-07T10:13:36.024Z,13.70
2018-06-07T10:14:36.025Z,12.10
2018-06-07T10:15:35.984Z,13.10
2018-06-07T10:16:35.972Z,13.20
2018-06-07T10:17:35.942Z,12.40
2018-06-07T10:18:35.948Z,13.70
2018-06-07T10:19:35.895Z,13.60
2018-06-07T10:20:35.877Z,15.90
2018-06-07T10:21:35.863Z,14.60
2018-06-07T10:22:35.873Z,14.40
2018-06-07T10:23:35.945Z,14.50
2018-06-07T10:24:35.796Z,14.70
2018-06-07T10:25:35.786Z,15.80
2018-06-07T10:26:35.771Z,15.80
2018-06-07T10:27:35.746Z,16.50
2018-06-07T10:28:35.721Z,17.30
2018-06-07T10:29:35.723Z,16.90
2018-06-07T10:30:35.682Z,18.50
2018-06-07T10:31:35.661Z,18.00
2018-06-07T10:32:35.630Z,16.70
2018-06-07T10:33:35.668Z,18.20
2018-06-07T10:34:35.630Z,19.40
2018-06-07T10:35:35.673Z,18.60
2018-06-07T10:36:35.571Z,16.30
2018-06-07T10:37:35.589Z,17.10
2018-06-07T10:38:35.679Z,16.30
2018-06-07T10:39:35.636Z,16.40
2018-06-07T10:40:35.525Z,16.10
2018-06-07T10:41:35.553Z,15.40
2018-06-07T10:42:35.429Z,16.90
2018-06-07T10:43:35.496Z,18.00
2018-06-07T10:44:35.377Z,16.30
2018-06-07T10:45:36.412Z,16.50
2018-06-07T10:46:35.343Z,15.20
2018-06-07T10:47:35.429Z,16.10
2018-06-07T10:48:35.286Z,16.50
2018-06-07T10:49:35.294Z,16.80
2018-06-07T10:50:35.253Z,16.40
2018-06-07T10:51:35.317Z,16.60
2018-06-07T10:52:35.220Z,15.40
2018-06-07T10:53:35.220Z,14.90
2018-06-07T10:54:35.159Z,16.10
2018-06-07T10:55:35.140Z,16.40
2018-06-07T10:56:35.118Z,14.70
2018-06-07T10:57:35.098Z,15.00
2018-06-07T10:58:35.143Z,15.30
2018-06-07T10:59:35.055Z,14.10
2018-06-07T11:00:35.073Z,14.00
2018-06-07T11:01:35.031Z,15.60
2018-06-07T11:02:35.089Z,15.60
2018-06-07T11:03:34.972Z,14.50
2018-06-07T11:04:36.014Z,13.70
2018-06-07T11:05:34.951Z,14.80
2018-06-07T11:06:35.120Z,14.70
2018-06-07T11:07:34.942Z,14.60
2018-06-07T11:08:35.019Z,15.80
2018-06-07T11:09:34.878Z,15.30
2018-06-07T11:10:35.042Z,15.10
2018-06-07T11:11:34.834Z,16.50
2018-06-07T11:12:34.940Z,15.40
2018-06-07T11:13:34.808Z,15.90
2018-06-07T11:14:34.971Z,16.20
2018-06-07T11:15:34.747Z,16.40
2018-06-07T11:16:34.754Z,15.10
2018-06-07T11:17:34.722Z,12.40
2018-06-07T11:18:34.818Z,14.00
2018-06-07T11:19:34.675Z,13.00
2018-06-07T11:20:34.648Z,14.60
2018-06-07T11:21:34.629Z,14.50
2018-06-07T11:22:34.641Z,12.80
2018-06-07T11:23:34.622Z,12.80
2018-06-07T11:24:34.723Z,13.90
2018-06-07T11:25:34.713Z,13.40
2018-06-07T11:26:34.640Z,15.80
2018-06-07T11:27:34.577Z,15.00
2018-06-07T11:28:34.572Z,17.00
2018-06-07T11:29:34.457Z,15.30
2018-06-07T11:30:34.548Z,14.00
2018-06-07T11:31:34.436Z,12.00
2018-06-07T11:32:36.540Z,11.60
2018-06-07T11:33:34.380Z,12.70
2018-06-07T11:34:34.380Z,12.90
2018-06-07T11:35:34.355Z,14.90
2018-06-07T11:36:34.354Z,14.20
2018-06-07T11:37:34.326Z,13.70
2018-06-07T11:38:34.502Z,16.20
2018-06-07T11:39:34.254Z,15.10
2018-06-07T11:40:35.460Z,17.60
2018-06-07T11:41:34.219Z,14.30
2018-06-07T11:42:34.323Z,15.90
2018-06-07T11:43:34.186Z,15.50
2018-06-07T11:44:34.309Z,15.00
2018-06-07T11:45:34.136Z,14.90
2018-06-07T11:46:34.242Z,13.50
2018-06-07T11:47:34.098Z,14.30
2018-06-07T11:48:34.144Z,13.70
2018-06-07T11:49:34.047Z,12.00
2018-06-07T11:50:34.156Z,14.00
2018-06-07T11:51:34.029Z,14.20
2018-06-07T11:52:35.070Z,13.20
2018-06-07T11:53:33.979Z,14.60
2018-06-07T11:54:34.080Z,13.80
2018-06-07T11:55:33.945Z,15.20
2018-06-07T11:56:33.990Z,13.10
2018-06-07T11:57:33.891Z,13.70
2018-06-07T11:58:34.914Z,12.50
2018-06-07T11:59:33.890Z,13.10
2018-06-07T12:00:33.905Z,13.70
2018-06-07T12:01:33.807Z,14.20
2018-06-07T12:02:33.814Z,14.30
2018-06-07T12:03:33.774Z,16.70
2018-06-07T12:04:33.824Z,15.80
2018-06-07T12:05:33.747Z,14.10
2018-06-07T12:06:33.743Z,12.70
2018-06-07T12:07:33.718Z,12.50
2018-06-07T12:08:34.834Z,13.30
2018-06-07T12:09:33.674Z,12.10
2018-06-07T12:10:33.797Z,12.10
2018-06-07T12:11:33.624Z,11.90
2018-06-07T12:12:33.817Z,12.30
2018-06-07T12:13:33.577Z,15.30
2018-06-07T12:14:35.661Z,14.20
2018-06-07T12:15:33.544Z,13.60
2018-06-07T12:16:33.597Z,14.20
2018-06-07T12:17:33.495Z,15.10
2018-06-07T12:18:33.541Z,16.90
2018-06-07T12:19:33.470Z,16.90
2018-06-07T12:20:34.453Z,16.50
2018-06-07T12:21:33.417Z,16.20
2018-06-07T12:22:33.421Z,13.60
2018-06-07T12:23:33.401Z,13.40
2018-06-07T12:24:33.461Z,13.10
2018-06-07T12:25:33.371Z,12.40
2018-06-07T12:30:25.580Z,13.40
2018-06-07T12:31:23.825Z,11.90
2018-06-07T12:32:23.707Z,13.30
2018-06-07T12:33:23.845Z,13.50
2018-06-07T12:34:23.669Z,12.80
2018-06-07T12:35:23.734Z,12.90
2018-06-07T12:36:23.638Z,12.90
2018-06-07T12:37:23.760Z,13.40
2018-06-07T12:38:23.592Z,13.50
2018-06-07T12:39:23.698Z,14.40
2018-06-07T12:40:23.674Z,15.00
2018-06-07T12:41:23.686Z,14.40
2018-06-07T12:42:23.556Z,15.70
2018-06-07T12:43:23.589Z,16.10
2018-06-07T12:44:23.474Z,14.80
2018-06-07T12:45:23.613Z,14.10
2018-06-07T12:46:23.434Z,14.60
2018-06-07T12:47:23.520Z,14.80
2018-06-07T12:48:23.402Z,14.30
2018-06-07T12:49:23.538Z,15.90
2018-06-07T12:50:23.374Z,15.20
2018-06-07T12:51:23.448Z,14.50
2018-06-07T12:52:23.344Z,14.10
2018-06-07T12:53:23.476Z,16.00
2018-06-07T12:54:23.294Z,16.30
2018-06-07T12:55:24.411Z,14.80
2018-06-07T12:56:23.248Z,15.70
2018-06-07T12:57:23.468Z,15.00
2018-06-07T12:58:23.207Z,14.60
2018-06-07T12:59:23.295Z,14.30
2018-06-07T13:00:23.179Z,14.50
2018-06-07T13:53:38.666Z,15.10
2018-06-07T14:03:50.358Z,15.30
2018-06-07T14:04:47.351Z,15.90
2018-06-07T14:05:47.352Z,15.00
2018-06-07T14:06:47.337Z,15.70
2018-06-07T14:07:47.293Z,16.40
2018-06-07T14:08:47.267Z,15.80
2018-06-07T14:09:47.246Z,15.40
2018-06-07T14:10:48.266Z,15.60
2018-06-07T14:11:47.212Z,14.50
2018-06-07T14:12:47.180Z,13.60
2018-06-07T14:13:47.180Z,15.30
2018-06-07T14:14:47.148Z,15.10
2018-06-07T14:15:47.201Z,14.10
2018-06-07T14:16:47.114Z,14.70
2018-06-07T14:17:47.105Z,13.80
2018-06-07T14:18:47.077Z,14.00
2018-06-07T14:44:04.923Z,12.20
2018-06-07T14:45:04.864Z,11.50
2018-06-07T14:46:04.522Z,11.50
2018-06-07T14:47:04.747Z,11.60
2018-06-07T14:48:04.424Z,13.00
2018-06-07T14:49:05.615Z,13.40
2018-06-07T14:50:04.391Z,13.20
2018-06-07T14:51:04.501Z,13.40
2018-06-07T14:52:04.382Z,14.50
2018-06-07T14:53:04.554Z,12.90
2018-06-07T14:54:05.461Z,13.20
2018-06-07T14:55:04.301Z,14.00
2018-06-07T14:56:04.313Z,13.40
2018-06-07T14:57:04.495Z,13.80
2018-06-07T14:58:04.350Z,14.40
2018-06-07T14:59:04.216Z,14.50
2018-06-07T15:00:04.252Z,13.90
2018-06-07T15:01:04.199Z,15.20
2018-06-07T15:02:04.301Z,13.40
2018-06-07T15:03:04.158Z,13.30
2018-06-07T15:04:04.189Z,14.30
2018-06-07T15:05:04.131Z,14.30
2018-06-07T15:06:04.214Z,14.30
2018-06-07T15:07:04.082Z,13.70
2018-06-07T15:08:04.139Z,14.60
2018-06-07T15:09:04.055Z,14.40
2018-06-07T15:10:04.170Z,14.40
2018-06-07T15:11:04.004Z,14.80
2018-06-07T15:12:04.056Z,14.50
2018-06-07T15:13:03.954Z,13.60
2018-06-07T15:14:04.168Z,14.30
2018-06-07T15:15:03.929Z,15.10
2018-06-07T15:16:03.973Z,14.70
2018-06-07T15:17:03.894Z,14.20
2018-06-07T15:18:04.453Z,14.00
2018-06-07T15:19:03.872Z,14.80
2018-06-07T15:20:04.330Z,15.20
2018-06-07T15:21:03.972Z,15.10
2018-06-07T15:22:03.798Z,14.90
2018-06-07T15:23:24.869Z,14.40
2018-06-07T15:24:03.775Z,14.50
2018-06-07T15:25:03.819Z,14.50
2018-06-07T15:26:06.404Z,15.80
2018-06-07T15:27:16.437Z,14.60
2018-06-07T15:28:03.702Z,15.20
2018-06-07T16:38:30.717Z,10.80
2018-06-07T16:39:27.869Z,11.20
2018-06-07T16:40:27.897Z,9.90
2018-06-07T16:41:28.924Z,10.40
2018-06-07T16:42:27.790Z,9.10
2018-06-07T16:43:27.796Z,8.60
2018-06-07T16:44:27.785Z,9.30
2018-06-07T16:45:27.811Z,9.30
2018-06-07T16:46:27.737Z,9.20
2018-06-07T16:47:27.718Z,8.70
2018-06-07T16:48:27.704Z,8.40
2018-06-07T16:49:28.758Z,8.60
2018-06-07T16:50:27.672Z,8.60
2018-06-07T16:51:27.687Z,8.90
2018-06-07T16:52:27.604Z,9.90
2018-06-07T16:53:27.615Z,9.60
2018-06-07T16:54:27.686Z,9.50
2018-06-07T16:55:27.565Z,10.00
2018-06-07T16:56:27.592Z,9.60
2018-06-07T16:57:27.518Z,9.70
2018-06-07T16:58:27.599Z,9.70
2018-06-07T16:59:27.499Z,10.00
2018-06-07T17:00:27.503Z,9.30
2018-06-07T17:01:27.430Z,9.50
2018-06-07T17:02:27.419Z,9.40
2018-06-07T17:03:27.427Z,9.40
2018-06-07T17:04:27.395Z,9.80
2018-06-07T17:05:27.364Z,13.70
2018-06-07T17:06:27.341Z,13.30
2018-06-07T17:07:27.328Z,16.10
2018-06-07T17:08:27.311Z,15.00
2018-06-07T17:09:27.339Z,13.40
2018-06-07T17:10:27.305Z,13.00
2018-06-07T17:11:27.254Z,12.50
2018-06-07T17:12:27.242Z,12.40
2018-06-07T17:13:27.243Z,11.50
2018-06-07T17:14:27.299Z,11.90
2018-06-07T17:15:27.201Z,10.50
2018-06-07T17:16:27.246Z,10.70
2018-06-07T17:17:27.150Z,11.70
2018-06-07T17:18:27.545Z,11.50
2018-06-07T17:19:27.113Z,10.50
2018-06-07T17:20:27.176Z,10.90
2018-06-07T17:21:27.105Z,10.60
2018-06-07T17:22:27.182Z,9.50
2018-06-07T17:23:27.059Z,9.20
2018-06-07T17:24:27.062Z,10.20
2018-06-07T17:25:27.003Z,10.80
2018-06-07T17:26:27.102Z,10.40
2018-06-07T17:27:26.961Z,10.90
2018-06-07T17:28:28.094Z,11.00
2018-06-07T17:29:26.947Z,9.80
2018-06-07T17:30:27.931Z,10.50
2018-06-07T17:31:26.886Z,10.80